Rudolph, Wisconsin
Current Conditions -  °F | °C
As of 6:32 AM on Tuesday 27 Jan 2015 (Local Time) from KISW Reporting Station
Haze Haze  
Wind Chill: 16°   Ceiling: 1000
Heat Index: 23°   Visibility: 6mi
Dew Point: 19°   Wind: 6mph
Humidity: 85%   Direction: 30°NNE
Pressure: 30.11"   Gusts: NA
Location:  44.5°N, 89.81°W
Report Text: KISW 271232Z AUTO 03005KT 6SM BR OVC010 M05/M07 A3011 RMK AO2 CIG 007V013 T10501072
Loading
Personal Weather Stations






























Interactive Weather Map New forecast layout! Learn more

10-Day Weather Forecast

Advertisements
Track Severe Weather on mobile